createdAt,value
2023-05-19T00:02:25.980Z,61.47
2023-05-19T00:04:53.275Z,57.20
2023-05-19T00:07:25.589Z,61.20
2023-05-19T00:09:52.286Z,72.10
2023-05-19T00:12:19.014Z,59.83
2023-05-19T00:14:45.791Z,73.03
2023-05-19T00:17:12.522Z,73.93
2023-05-19T00:19:39.467Z,47.17
2023-05-19T00:22:06.204Z,56.42
2023-05-19T00:24:33.264Z,43.33
2023-05-19T00:26:59.823Z,72.32
2023-05-19T00:29:26.360Z,49.92
2023-05-19T00:31:52.905Z,55.28
2023-05-19T00:34:19.641Z,49.33
2023-05-19T00:36:46.153Z,45.77
2023-05-19T00:39:12.679Z,60.20
2023-05-19T00:41:39.332Z,54.53
2023-05-19T00:44:07.021Z,61.17
2023-05-19T00:46:34.037Z,51.63
2023-05-19T00:49:00.602Z,63.83
2023-05-19T00:51:29.578Z,56.30
2023-05-19T00:53:56.772Z,55.70
2023-05-19T00:56:23.462Z,38.95
2023-05-19T00:58:51.839Z,77.38
2023-05-19T01:01:21.827Z,36.83
2023-05-19T01:03:49.142Z,47.20
2023-05-19T01:06:15.835Z,42.13
2023-05-19T01:08:42.388Z,36.15
2023-05-19T01:11:08.970Z,52.58
2023-05-19T01:13:36.787Z,49.10
2023-05-19T01:16:40.328Z,44.33
2023-05-19T01:19:46.727Z,39.05
2023-05-19T01:22:27.623Z,41.85
2023-05-19T01:25:13.086Z,34.30
2023-05-19T01:28:10.329Z,32.87
2023-05-19T01:30:40.662Z,58.20
2023-05-19T01:33:10.622Z,35.42
2023-05-19T01:35:39.762Z,39.67
2023-05-19T01:38:09.828Z,63.92
2023-05-19T01:40:38.846Z,39.23
2023-05-19T01:43:07.835Z,28.20
2023-05-19T01:45:34.649Z,62.00
2023-05-19T01:48:03.757Z,49.42
2023-05-19T01:50:31.973Z,33.75
2023-05-19T01:52:59.424Z,41.13
2023-05-19T01:55:26.818Z,43.33
2023-05-19T01:58:11.789Z,45.15
2023-05-19T02:00:47.040Z,46.85
2023-05-19T02:03:48.112Z,38.67
2023-05-19T02:06:37.642Z,38.33
2023-05-19T02:09:13.715Z,38.47
2023-05-19T02:11:43.857Z,41.05
2023-05-19T02:14:50.145Z,53.33
2023-05-19T02:17:18.686Z,34.00
2023-05-19T02:19:45.245Z,55.50
2023-05-19T02:22:11.880Z,37.92
2023-05-19T02:24:39.450Z,46.47
2023-05-19T02:27:06.302Z,46.88
2023-05-19T02:29:32.913Z,50.92
2023-05-19T02:32:02.080Z,63.73
2023-05-19T02:34:28.769Z,55.60
2023-05-19T02:36:56.504Z,37.55
2023-05-19T02:39:23.128Z,42.67
2023-05-19T02:41:49.793Z,42.95
2023-05-19T02:44:16.323Z,39.63
2023-05-19T02:46:43.321Z,38.65
2023-05-19T02:49:09.937Z,50.83
2023-05-19T02:51:36.461Z,50.53
2023-05-19T02:54:03.039Z,30.92
2023-05-19T02:56:29.650Z,36.13
2023-05-19T02:58:56.398Z,48.65
2023-05-19T03:01:23.205Z,43.03
2023-05-19T03:03:49.992Z,40.67
2023-05-19T03:06:18.074Z,53.97
2023-05-19T03:08:45.000Z,35.33
2023-05-19T03:11:11.546Z,37.05
2023-05-19T03:13:38.082Z,51.03
2023-05-19T03:16:04.766Z,43.72
2023-05-19T03:18:31.748Z,43.22
2023-05-19T03:20:58.278Z,35.23
2023-05-19T03:23:24.896Z,43.83
2023-05-19T03:25:51.541Z,40.78
2023-05-19T03:28:18.077Z,41.30
2023-05-19T03:30:44.594Z,42.75
2023-05-19T03:33:11.736Z,46.73
2023-05-19T03:35:38.331Z,38.90
2023-05-19T03:38:04.864Z,37.85
2023-05-19T03:40:31.631Z,30.73
2023-05-19T03:42:58.482Z,50.13
2023-05-19T03:45:25.026Z,51.57
2023-05-19T03:47:51.675Z,46.08
2023-05-19T03:50:18.319Z,48.80
2023-05-19T03:52:46.473Z,46.63
2023-05-19T03:55:14.722Z,50.10
2023-05-19T03:57:41.733Z,37.20
2023-05-19T04:00:11.271Z,34.67
2023-05-19T04:02:38.271Z,28.17
2023-05-19T04:05:05.493Z,42.33
2023-05-19T04:07:32.085Z,19.60
2023-05-19T04:09:58.719Z,47.70
2023-05-19T04:12:25.302Z,38.80
2023-05-19T04:14:51.861Z,49.40
2023-05-19T04:17:18.495Z,45.35
2023-05-19T04:19:45.072Z,56.22
2023-05-19T04:22:11.614Z,35.97
2023-05-19T04:24:38.102Z,39.08
2023-05-19T04:27:04.884Z,61.55
2023-05-19T04:29:32.614Z,59.17
2023-05-19T04:31:59.202Z,36.83
2023-05-19T04:34:25.838Z,46.27
2023-05-19T04:36:53.514Z,25.60
2023-05-19T04:39:21.751Z,32.38
2023-05-19T04:41:48.317Z,34.22
2023-05-19T04:44:18.252Z,51.65
2023-05-19T04:46:45.351Z,37.97
2023-05-19T04:49:15.095Z,45.80
2023-05-19T04:51:42.361Z,57.78
2023-05-19T04:54:09.989Z,40.17
2023-05-19T04:56:36.837Z,85.50
2023-05-19T04:59:03.700Z,23.07
2023-05-19T05:01:31.353Z,48.60
2023-05-19T05:03:59.271Z,44.03
2023-05-19T05:06:26.517Z,37.72
2023-05-19T05:08:53.141Z,26.17
2023-05-19T05:11:20.041Z,49.30
2023-05-19T05:13:46.983Z,53.47
2023-05-19T05:16:14.866Z,54.90
2023-05-19T05:18:44.370Z,37.78
2023-05-19T05:21:12.293Z,49.35
2023-05-19T05:23:39.073Z,28.20
2023-05-19T05:26:18.665Z,55.40
2023-05-19T05:28:45.388Z,53.47
2023-05-19T05:31:12.108Z,52.08
2023-05-19T05:33:38.976Z,45.17
2023-05-19T05:36:05.796Z,64.87
2023-05-19T05:38:32.587Z,55.42
2023-05-19T05:40:59.332Z,41.03
2023-05-19T05:43:26.005Z,56.10
2023-05-19T05:45:52.507Z,40.45
2023-05-19T05:48:19.428Z,55.87
2023-05-19T05:50:46.501Z,27.58
2023-05-19T05:53:19.234Z,56.38
2023-05-19T05:55:49.823Z,42.05
2023-05-19T05:58:16.994Z,60.85
2023-05-19T06:00:43.791Z,30.13
2023-05-19T06:03:11.540Z,60.53
2023-05-19T06:05:38.687Z,50.38
2023-05-19T06:08:05.707Z,37.80
2023-05-19T06:10:32.633Z,52.13
2023-05-19T06:12:59.352Z,57.17
2023-05-19T06:15:26.153Z,50.08
2023-05-19T06:17:52.731Z,41.72
2023-05-19T06:20:19.972Z,67.53
2023-05-19T06:22:46.587Z,42.20
2023-05-19T06:25:13.874Z,61.83
2023-05-19T06:27:40.453Z,56.95
2023-05-19T06:30:08.754Z,57.13
2023-05-19T06:32:35.365Z,61.90
2023-05-19T06:35:02.025Z,70.55
2023-05-19T06:37:28.590Z,86.13
2023-05-19T06:39:55.160Z,63.58
2023-05-19T06:42:22.703Z,39.20
2023-05-19T06:44:51.237Z,66.05
2023-05-19T06:47:18.279Z,66.25
2023-05-19T06:49:45.816Z,56.57
2023-05-19T06:52:12.536Z,44.42
2023-05-19T06:54:39.181Z,59.28
2023-05-19T06:57:05.733Z,69.25
2023-05-19T06:59:32.309Z,68.00
2023-05-19T07:01:58.951Z,40.53
2023-05-19T07:04:25.638Z,68.25
2023-05-19T07:06:52.329Z,90.20
2023-05-19T07:09:18.965Z,94.90
2023-05-19T07:11:45.844Z,69.55
2023-05-19T07:14:12.419Z,89.17
2023-05-19T07:16:38.996Z,99.15
2023-05-19T07:19:05.709Z,100.18
2023-05-19T07:21:32.276Z,112.97
2023-05-19T07:23:58.891Z,113.35
2023-05-19T07:26:26.450Z,130.13
2023-05-19T07:28:53.249Z,133.23
2023-05-19T07:31:19.882Z,113.57
2023-05-19T07:33:46.435Z,96.82
2023-05-19T07:36:13.009Z,99.05
2023-05-19T07:38:39.761Z,107.40
2023-05-19T07:41:06.378Z,139.98
2023-05-19T07:43:33.057Z,145.40
2023-05-19T07:45:59.716Z,126.13
2023-05-19T07:48:26.476Z,151.93
2023-05-19T07:50:53.298Z,173.70
2023-05-19T07:53:20.522Z,175.35
2023-05-19T07:55:47.061Z,186.60
2023-05-19T07:58:13.937Z,142.63
2023-05-19T08:00:43.040Z,204.82
2023-05-19T08:03:10.322Z,187.57
2023-05-19T08:05:37.031Z,185.15
2023-05-19T08:08:04.312Z,269.98
2023-05-19T08:10:31.560Z,272.45
2023-05-19T08:12:58.387Z,280.17
2023-05-19T08:15:25.406Z,235.37
2023-05-19T08:17:52.012Z,256.80
2023-05-19T08:20:18.672Z,258.00
2023-05-19T08:22:45.249Z,208.18
2023-05-19T08:25:11.762Z,269.20
2023-05-19T08:27:38.383Z,227.10
2023-05-19T08:30:05.485Z,263.90
2023-05-19T08:32:32.064Z,243.57
2023-05-19T08:34:58.904Z,266.45
2023-05-19T08:37:25.592Z,277.88
2023-05-19T08:39:52.179Z,235.93
2023-05-19T08:42:18.751Z,264.40
2023-05-19T08:44:45.343Z,255.07
2023-05-19T08:47:13.896Z,215.38
2023-05-19T08:49:45.583Z,263.25
2023-05-19T08:52:35.558Z,260.73
2023-05-19T08:55:13.057Z,224.27
2023-05-19T08:57:40.830Z,232.20
2023-05-19T09:00:09.813Z,287.23
2023-05-19T09:02:46.555Z,253.00
2023-05-19T09:05:23.149Z,258.43
2023-05-19T09:07:49.908Z,252.07
2023-05-19T09:10:16.635Z,167.82
2023-05-19T09:12:45.971Z,244.85
2023-05-19T09:15:13.224Z,226.00
2023-05-19T09:17:40.080Z,230.83
2023-05-19T09:20:11.042Z,281.08
2023-05-19T09:22:47.612Z,255.38
2023-05-19T09:25:22.999Z,229.40
2023-05-19T09:27:49.739Z,285.63
2023-05-19T09:30:17.393Z,269.57
2023-05-19T09:32:45.043Z,241.32
2023-05-19T09:35:13.180Z,313.55
2023-05-19T09:37:41.549Z,242.38
2023-05-19T09:40:13.923Z,223.32
2023-05-19T09:42:41.867Z,245.17
2023-05-19T09:45:12.049Z,202.60
2023-05-19T09:47:42.144Z,214.57
2023-05-19T09:50:11.606Z,291.40
2023-05-19T09:52:39.700Z,293.10
2023-05-19T09:55:10.029Z,277.30
2023-05-19T09:57:37.574Z,242.18
2023-05-19T10:00:12.406Z,201.70
2023-05-19T10:02:42.682Z,216.25
2023-05-19T10:05:12.956Z,275.85
2023-05-19T10:07:40.855Z,269.63
2023-05-19T10:10:09.942Z,223.65
2023-05-19T10:12:39.211Z,217.93
2023-05-19T10:15:10.818Z,206.32
2023-05-19T10:17:42.489Z,237.98
2023-05-19T10:20:14.381Z,194.60
2023-05-19T10:22:43.225Z,219.40
2023-05-19T10:25:11.184Z,109.10
2023-05-19T10:27:45.263Z,112.82
2023-05-19T10:30:18.843Z,63.78
2023-05-19T10:32:48.696Z,87.27
2023-05-19T10:35:34.170Z,167.02
2023-05-19T10:38:21.318Z,75.05
2023-05-19T10:40:56.966Z,76.07
2023-05-19T10:43:45.918Z,116.25
2023-05-19T10:46:12.687Z,74.47
2023-05-19T10:48:44.483Z,87.93
2023-05-19T10:51:12.374Z,50.80
2023-05-19T10:53:50.048Z,61.08
2023-05-19T10:56:32.947Z,20.15
2023-05-19T10:58:59.892Z,57.80
2023-05-19T11:01:34.356Z,59.15
2023-05-19T11:04:15.995Z,9.95
2023-05-19T11:06:51.999Z,23.35
2023-05-19T11:09:34.222Z,24.05
2023-05-19T11:12:06.919Z,20.60
2023-05-19T11:14:34.883Z,37.20
2023-05-19T11:17:01.605Z,74.95
2023-05-19T11:19:34.392Z,14.52
2023-05-19T11:22:12.441Z,45.83
2023-05-19T11:24:44.486Z,44.27
2023-05-19T11:27:31.923Z,21.63
2023-05-19T11:29:59.719Z,17.30
2023-05-19T11:32:31.686Z,7.75
2023-05-19T11:34:58.407Z,13.23
2023-05-19T11:37:25.218Z,49.97
2023-05-19T11:39:55.076Z,11.50
2023-05-19T11:42:21.813Z,113.38
2023-05-19T11:44:49.387Z,11.27
2023-05-19T11:47:17.193Z,35.83
2023-05-19T11:50:05.206Z,16.00
2023-05-19T11:52:32.401Z,8.80
2023-05-19T11:55:02.183Z,9.60
2023-05-19T11:57:28.880Z,14.10
2023-05-19T11:59:58.098Z,10.55
2023-05-19T12:02:26.162Z,39.57
2023-05-19T12:04:54.138Z,11.60
2023-05-19T12:07:25.044Z,8.73
2023-05-19T12:09:52.967Z,10.38
2023-05-19T12:12:26.929Z,20.85
2023-05-19T12:14:57.204Z,12.63
2023-05-19T12:17:24.339Z,10.88
2023-05-19T12:19:51.311Z,40.15
2023-05-19T12:22:21.704Z,11.38
2023-05-19T12:24:49.328Z,11.27
2023-05-19T12:27:28.360Z,46.37
2023-05-19T12:29:57.210Z,45.53
2023-05-19T12:32:25.720Z,11.25
2023-05-19T12:34:53.724Z,44.80
2023-05-19T12:37:20.260Z,12.55
2023-05-19T12:39:49.197Z,39.23
2023-05-19T12:42:16.233Z,30.70
2023-05-19T12:44:46.910Z,13.73
2023-05-19T12:47:15.681Z,10.27
2023-05-19T12:49:56.174Z,17.05
2023-05-19T12:52:23.670Z,14.37
2023-05-19T12:54:52.448Z,81.20
2023-05-19T12:57:21.563Z,10.25
2023-05-19T12:59:49.354Z,16.75
2023-05-19T13:02:16.318Z,21.27
2023-05-19T13:04:43.109Z,12.57
2023-05-19T13:07:10.002Z,17.80
2023-05-19T13:09:39.129Z,15.60
2023-05-19T13:12:06.811Z,11.18
2023-05-19T13:14:33.483Z,13.73
2023-05-19T13:17:00.229Z,17.37
2023-05-19T13:19:27.933Z,10.18
2023-05-19T13:21:57.752Z,39.00
2023-05-19T13:24:24.695Z,23.60
2023-05-19T13:26:52.283Z,12.55
2023-05-19T13:29:19.935Z,13.57
2023-05-19T13:31:46.496Z,27.45
2023-05-19T13:34:14.470Z,8.95
2023-05-19T13:36:43.187Z,11.70
2023-05-19T13:39:09.822Z,40.47
2023-05-19T13:41:36.720Z,10.60
2023-05-19T13:44:03.367Z,23.05
2023-05-19T13:46:44.137Z,12.20
2023-05-19T13:49:11.765Z,19.30
2023-05-19T13:51:42.644Z,11.13
2023-05-19T13:54:09.560Z,45.70
2023-05-19T13:56:36.610Z,17.15
2023-05-19T13:59:04.058Z,17.25
2023-05-19T14:01:30.948Z,18.33
2023-05-19T14:03:57.743Z,18.35
2023-05-19T14:06:24.538Z,16.30
2023-05-19T14:08:51.416Z,12.93
2023-05-19T14:11:21.653Z,13.70
2023-05-19T14:13:53.056Z,13.82
2023-05-19T14:16:22.097Z,16.30
2023-05-19T14:18:49.726Z,18.40
2023-05-19T14:21:16.337Z,9.52
2023-05-19T14:23:43.032Z,47.00
2023-05-19T14:26:09.593Z,10.73
2023-05-19T14:28:36.486Z,11.05
2023-05-19T14:31:03.205Z,45.93
2023-05-19T14:33:32.874Z,9.95
2023-05-19T14:36:03.999Z,17.17
2023-05-19T14:38:30.789Z,21.30
2023-05-19T14:40:57.475Z,10.43
2023-05-19T14:43:24.291Z,14.37
2023-05-19T14:45:50.947Z,14.43
2023-05-19T14:48:18.066Z,16.90
2023-05-19T14:50:46.315Z,8.88
2023-05-19T14:53:12.857Z,68.50
2023-05-19T14:55:39.484Z,8.10
2023-05-19T14:58:13.003Z,10.25
2023-05-19T15:00:53.175Z,9.40
2023-05-19T15:03:20.141Z,12.88
2023-05-19T15:05:46.843Z,13.30
2023-05-19T15:08:13.458Z,13.73
2023-05-19T15:10:40.182Z,19.65
2023-05-19T15:13:06.728Z,170.05
2023-05-19T15:15:33.419Z,16.08
2023-05-19T15:18:00.059Z,14.57
2023-05-19T15:20:29.376Z,63.10
2023-05-19T15:22:56.454Z,17.60
2023-05-19T15:25:23.038Z,14.73
2023-05-19T15:27:49.937Z,15.98
2023-05-19T15:30:16.676Z,20.05
2023-05-19T15:32:43.338Z,19.07
2023-05-19T15:35:10.100Z,17.50
2023-05-19T15:37:36.650Z,14.15
2023-05-19T15:40:04.481Z,13.38
2023-05-19T15:42:31.127Z,19.77
2023-05-19T15:44:57.752Z,18.70
2023-05-19T15:47:24.481Z,10.00
2023-05-19T15:49:51.179Z,8.80
2023-05-19T15:52:17.813Z,17.02
2023-05-19T15:54:44.596Z,10.68
2023-05-19T15:57:11.129Z,18.30
2023-05-19T15:59:37.809Z,8.95
2023-05-19T16:02:04.579Z,21.92
2023-05-19T16:04:31.242Z,9.18
2023-05-19T16:06:57.956Z,43.53
2023-05-19T16:09:24.598Z,14.97
2023-05-19T16:11:51.454Z,9.30
2023-05-19T16:14:17.999Z,26.08
2023-05-19T16:16:44.954Z,10.82
2023-05-19T16:19:11.670Z,9.75
2023-05-19T16:21:38.313Z,16.93
2023-05-19T16:24:05.149Z,11.90
2023-05-19T16:26:31.877Z,12.68
2023-05-19T16:28:58.490Z,9.45
2023-05-19T16:31:25.382Z,11.25
2023-05-19T16:33:52.069Z,14.03
2023-05-19T16:36:18.727Z,8.85
2023-05-19T16:38:45.232Z,15.60
2023-05-19T16:41:12.328Z,22.70
2023-05-19T16:43:39.473Z,15.30
2023-05-19T16:46:06.428Z,10.50
2023-05-19T16:48:33.159Z,11.60
2023-05-19T16:50:59.813Z,37.95
2023-05-19T16:53:26.442Z,42.35
2023-05-19T16:55:53.150Z,21.40
2023-05-19T16:58:19.826Z,11.10
2023-05-19T17:00:46.463Z,16.73
2023-05-19T17:03:13.272Z,25.23
2023-05-19T17:05:42.029Z,146.50
2023-05-19T17:08:08.935Z,10.63
2023-05-19T17:10:36.105Z,13.67
2023-05-19T17:13:02.927Z,74.43
2023-05-19T17:15:30.277Z,13.55
2023-05-19T17:17:56.830Z,40.63
2023-05-19T17:20:23.498Z,41.70
2023-05-19T17:22:50.140Z,11.00
2023-05-19T17:25:16.976Z,24.02
2023-05-19T17:27:43.877Z,26.08
2023-05-19T17:30:11.087Z,11.75
2023-05-19T17:32:39.531Z,16.75
2023-05-19T17:35:06.916Z,23.07
2023-05-19T17:37:33.585Z,28.83
2023-05-19T17:40:00.184Z,38.33
2023-05-19T17:42:26.775Z,48.00
2023-05-19T17:44:53.360Z,21.55
2023-05-19T17:47:20.050Z,30.23
2023-05-19T17:49:46.713Z,119.10
2023-05-19T17:52:13.796Z,24.58
2023-05-19T17:54:40.568Z,35.42
2023-05-19T17:57:12.488Z,30.23
2023-05-19T17:59:39.548Z,41.70
2023-05-19T18:02:07.182Z,16.27
2023-05-19T18:04:34.387Z,40.55
2023-05-19T18:07:03.687Z,105.13
2023-05-19T18:09:30.558Z,24.55
2023-05-19T18:11:57.231Z,84.30
2023-05-19T18:14:23.892Z,39.80
2023-05-19T18:16:50.622Z,36.10
2023-05-19T18:19:17.226Z,64.18
2023-05-19T18:21:43.807Z,70.28
2023-05-19T18:24:10.754Z,110.50
2023-05-19T18:26:41.981Z,163.40
2023-05-19T18:29:11.650Z,78.30
2023-05-19T18:31:38.506Z,58.63
2023-05-19T18:34:05.490Z,66.50
2023-05-19T18:36:32.439Z,60.80
2023-05-19T18:38:59.440Z,104.32
2023-05-19T18:41:26.169Z,52.00
2023-05-19T18:43:52.825Z,106.57
2023-05-19T18:46:20.001Z,101.45
2023-05-19T18:48:46.929Z,102.10
2023-05-19T18:51:15.826Z,94.07
2023-05-19T18:53:42.352Z,98.05
2023-05-19T18:56:11.209Z,115.85
2023-05-19T18:58:37.739Z,79.78
2023-05-19T19:01:05.222Z,164.80
2023-05-19T19:03:32.038Z,130.23
2023-05-19T19:05:59.538Z,157.73
2023-05-19T19:08:26.220Z,141.00
2023-05-19T19:10:53.874Z,84.05
2023-05-19T19:13:21.039Z,93.53
2023-05-19T19:15:47.710Z,143.95
2023-05-19T19:18:14.299Z,127.85
2023-05-19T19:20:40.997Z,179.15
2023-05-19T19:23:07.598Z,149.35
2023-05-19T19:25:34.251Z,146.00
2023-05-19T19:28:01.640Z,151.82
2023-05-19T19:30:29.371Z,128.63
2023-05-19T19:32:57.014Z,139.00
2023-05-19T19:35:23.653Z,146.32
2023-05-19T19:37:51.713Z,181.00
2023-05-19T19:40:18.392Z,137.05
2023-05-19T19:42:45.018Z,171.85
2023-05-19T19:45:14.761Z,159.43
2023-05-19T19:47:42.260Z,185.20
2023-05-19T19:50:09.698Z,157.13
2023-05-19T19:52:37.061Z,171.95
2023-05-19T19:55:03.861Z,139.73
2023-05-19T19:57:31.681Z,183.23
2023-05-19T20:00:04.619Z,173.73
2023-05-19T20:02:31.359Z,193.23
2023-05-19T20:04:58.032Z,209.13
2023-05-19T20:07:24.655Z,195.88
2023-05-19T20:09:52.836Z,182.43
2023-05-19T20:12:19.363Z,180.68
2023-05-19T20:14:46.602Z,187.23
2023-05-19T20:17:13.339Z,183.00
2023-05-19T20:19:40.717Z,160.63
2023-05-19T20:22:07.249Z,108.25
2023-05-19T20:24:33.758Z,100.00
2023-05-19T20:27:00.311Z,110.20
2023-05-19T20:29:27.363Z,112.75
2023-05-19T20:31:55.563Z,98.47
2023-05-19T20:34:23.744Z,72.55
2023-05-19T20:36:50.356Z,85.57
2023-05-19T20:39:17.112Z,60.17
2023-05-19T20:41:43.704Z,72.15
2023-05-19T20:44:10.647Z,79.93
2023-05-19T20:46:37.163Z,80.20
2023-05-19T20:49:03.668Z,60.90
2023-05-19T20:51:30.303Z,75.60
2023-05-19T20:53:56.968Z,79.60
2023-05-19T20:56:23.483Z,84.35
2023-05-19T20:58:50.404Z,62.17
2023-05-19T21:01:17.272Z,81.78
2023-05-19T21:03:43.857Z,76.87
2023-05-19T21:06:10.533Z,76.90
2023-05-19T21:08:37.504Z,90.88
2023-05-19T21:11:04.221Z,91.00
2023-05-19T21:13:30.801Z,85.00
2023-05-19T21:15:57.454Z,72.70
2023-05-19T21:18:24.171Z,78.45
2023-05-19T21:20:50.671Z,74.55
2023-05-19T21:23:17.261Z,58.72
2023-05-19T21:25:45.417Z,82.53
2023-05-19T21:28:12.595Z,65.17
2023-05-19T21:30:39.195Z,61.17
2023-05-19T21:33:05.976Z,54.53
2023-05-19T21:35:32.866Z,66.22
2023-05-19T21:38:08.978Z,77.90
2023-05-19T21:40:42.508Z,55.67
2023-05-19T21:43:09.042Z,58.60
2023-05-19T21:45:35.633Z,56.92
2023-05-19T21:48:02.494Z,84.93
2023-05-19T21:50:29.194Z,66.13
2023-05-19T21:52:55.780Z,50.27
2023-05-19T21:55:23.083Z,73.05
2023-05-19T21:57:49.616Z,53.53
2023-05-19T22:00:16.413Z,57.08
2023-05-19T22:02:43.245Z,62.25
2023-05-19T22:05:10.148Z,57.00
2023-05-19T22:07:38.094Z,43.60
2023-05-19T22:10:04.995Z,60.50
2023-05-19T22:12:32.832Z,42.85
2023-05-19T22:15:00.578Z,50.22
2023-05-19T22:17:27.256Z,34.10
2023-05-19T22:19:53.846Z,47.38
2023-05-19T22:22:20.544Z,43.28
2023-05-19T22:24:47.074Z,42.88
2023-05-19T22:27:13.594Z,58.08
2023-05-19T22:29:40.201Z,45.77
2023-05-19T22:32:09.209Z,35.40
2023-05-19T22:34:35.922Z,34.72
2023-05-19T22:37:02.496Z,36.80
2023-05-19T22:39:28.997Z,32.15
2023-05-19T22:41:55.527Z,45.13
2023-05-19T22:44:22.065Z,34.25
2023-05-19T22:46:48.720Z,38.80
2023-05-19T22:49:15.490Z,27.80
2023-05-19T22:51:42.060Z,42.70
2023-05-19T22:54:09.849Z,31.57
2023-05-19T22:56:36.381Z,30.83
2023-05-19T22:59:03.036Z,35.28
2023-05-19T23:01:30.892Z,52.70
2023-05-19T23:03:57.546Z,36.63
2023-05-19T23:06:24.205Z,75.73
2023-05-19T23:08:59.390Z,48.15
2023-05-19T23:11:26.242Z,34.95
2023-05-19T23:13:52.827Z,50.60
2023-05-19T23:16:19.400Z,40.42
2023-05-19T23:18:46.135Z,50.47
2023-05-19T23:21:13.188Z,35.53
2023-05-19T23:23:39.832Z,43.80
2023-05-19T23:26:06.468Z,40.72
2023-05-19T23:28:32.951Z,50.75
2023-05-19T23:30:59.502Z,38.47
2023-05-19T23:33:26.047Z,49.33
2023-05-19T23:35:52.840Z,44.10
2023-05-19T23:38:19.410Z,44.13
2023-05-19T23:40:46.004Z,46.42
2023-05-19T23:43:12.510Z,36.70
2023-05-19T23:45:39.128Z,50.88
2023-05-19T23:48:06.095Z,43.03
2023-05-19T23:50:32.734Z,53.10
2023-05-19T23:52:59.690Z,26.08
2023-05-19T23:55:26.230Z,48.80
2023-05-19T23:57:52.758Z,38.33
